Time;durP1;ratioP1;P1;durP2;ratioP2;P2;SDS_P1;SDS_P2;PMS_P1;PMS_P2;Temp;Humidity;BMP_temperature;BMP_pressure;BME280_temperature;BME280_humidity;BME280_pressure;Samples;Min_cycle;Max_cycle;Signal;HPM_P1;HPM_P2
2022/03/06 00:01:25;;;;;;;4.88;3.10;;;20.10;44.10;;;;;;5011889;28;20033;-77
2022/03/06 00:03:51;;;;;;;5.20;3.15;;;20.10;44.10;;;;;;5011329;28;20512;-77
2022/03/06 00:06:17;;;;;;;4.20;2.70;;;20.10;44.10;;;;;;5012601;28;20018;-77
2022/03/06 00:08:43;;;;;;;5.32;3.10;;;20.10;44.00;;;;;;5012512;28;20202;-77
2022/03/06 00:11:09;;;;;;;5.90;3.45;;;20.10;44.00;;;;;;5011692;28;20360;-77
2022/03/06 00:13:35;;;;;;;5.15;2.95;;;20.10;44.00;;;;;;5012465;28;20483;-77
2022/03/06 00:16:01;;;;;;;4.68;3.17;;;20.10;43.90;;;;;;5012409;28;20438;-77
2022/03/06 00:18:28;;;;;;;4.72;3.10;;;20.10;44.10;;;;;;5011148;28;20053;-77
2022/03/06 00:20:55;;;;;;;4.72;3.10;;;20.10;44.10;;;;;;5011489;28;20034;-78
2022/03/06 00:23:22;;;;;;;4.30;3.03;;;20.10;44.10;;;;;;5012128;28;20034;-77
2022/03/06 00:25:47;;;;;;;4.88;3.25;;;20.10;44.10;;;;;;5012714;28;20073;-78
2022/03/06 00:28:13;;;;;;;3.70;2.90;;;20.10;44.00;;;;;;5012415;28;20021;-78
2022/03/06 00:30:41;;;;;;;4.97;3.40;;;20.10;43.80;;;;;;5011328;28;20026;-78
2022/03/06 00:33:07;;;;;;;4.93;3.20;;;20.10;44.10;;;;;;5012260;28;20474;-78
2022/03/06 00:35:33;;;;;;;5.15;3.22;;;20.10;44.50;;;;;;5011795;28;20106;-78
2022/03/06 00:38:00;;;;;;;4.32;3.10;;;20.10;44.10;;;;;;5012058;28;20129;-78
2022/03/06 00:40:26;;;;;;;4.43;2.78;;;20.10;44.00;;;;;;4993748;28;20036;-78
2022/03/06 00:42:52;;;;;;;6.95;3.17;;;20.10;44.00;;;;;;5010969;28;20038;-78
2022/03/06 00:45:18;;;;;;;4.80;3.00;;;20.10;44.10;;;;;;5010729;28;20057;-78
2022/03/06 00:47:44;;;;;;;4.97;3.20;;;20.10;44.20;;;;;;5009910;28;20465;-77
2022/03/06 00:50:10;;;;;;;5.57;3.10;;;20.10;44.20;;;;;;5009581;28;20026;-78
2022/03/06 00:52:37;;;;;;;5.22;3.10;;;20.10;44.20;;;;;;5010515;28;20479;-78
2022/03/06 00:55:03;;;;;;;4.93;3.40;;;20.10;43.90;;;;;;5010234;28;20022;-78
2022/03/06 00:57:29;;;;;;;3.45;2.65;;;20.10;44.10;;;;;;5011672;28;20402;-78
2022/03/06 00:59:55;;;;;;;5.22;3.00;;;20.10;44.00;;;;;;5010687;28;20022;-78
2022/03/06 01:02:20;;;;;;;4.13;2.92;;;20.10;43.90;;;;;;5011613;28;20065;-78
2022/03/06 01:04:46;;;;;;;4.82;2.90;;;20.10;44.00;;;;;;5011417;28;20029;-78
2022/03/06 01:07:12;;;;;;;4.68;2.90;;;20.10;44.10;;;;;;5011712;28;20022;-78
2022/03/06 01:09:37;;;;;;;5.47;3.10;;;20.10;44.10;;;;;;5010067;28;20116;-78
2022/03/06 01:12:03;;;;;;;5.03;2.90;;;20.10;44.10;;;;;;5011722;28;20036;-78
2022/03/06 01:14:29;;;;;;;4.43;2.95;;;20.10;44.00;;;;;;5011579;28;20111;-78
2022/03/06 01:16:55;;;;;;;4.50;2.90;;;20.10;44.00;;;;;;5011426;28;20081;-78
2022/03/06 01:19:20;;;;;;;4.47;3.00;;;20.10;44.00;;;;;;5009609;28;20590;-78
2022/03/06 01:21:47;;;;;;;4.05;2.85;;;20.10;44.10;;;;;;5011118;28;20112;-78
2022/03/06 01:24:12;;;;;;;5.53;3.13;;;20.10;43.90;;;;;;5011304;28;20597;-78
2022/03/06 01:26:38;;;;;;;4.88;3.10;;;20.10;44.00;;;;;;4994040;28;20036;-78
2022/03/06 01:29:04;;;;;;;4.75;2.97;;;20.10;44.10;;;;;;5010734;28;20032;-78
2022/03/06 01:31:30;;;;;;;6.18;3.30;;;20.10;44.00;;;;;;5010565;28;20565;-78
2022/03/06 01:33:56;;;;;;;5.40;3.15;;;20.10;44.00;;;;;;5011165;28;20030;-78
2022/03/06 01:36:21;;;;;;;4.57;3.00;;;20.10;44.60;;;;;;5011310;28;20026;-78
2022/03/06 01:38:47;;;;;;;4.90;3.00;;;20.10;43.80;;;;;;5010032;28;20093;-78
2022/03/06 01:41:13;;;;;;;4.53;2.90;;;20.10;44.00;;;;;;5010608;28;20109;-78
2022/03/06 01:43:39;;;;;;;4.78;2.88;;;20.10;44.00;;;;;;5011343;28;20036;-78
2022/03/06 01:46:04;;;;;;;4.03;2.90;;;20.10;44.10;;;;;;5011127;28;20040;-78
2022/03/06 01:48:30;;;;;;;4.55;2.97;;;20.10;43.80;;;;;;5011197;28;20501;-78
2022/03/06 01:50:56;;;;;;;5.00;3.20;;;20.10;44.10;;;;;;5009015;28;20030;-78
2022/03/06 01:53:22;;;;;;;5.65;3.08;;;20.10;43.80;;;;;;4993715;28;20041;-78
2022/03/06 01:55:48;;;;;;;5.22;3.08;;;20.10;44.00;;;;;;5009971;28;20097;-77
2022/03/06 01:58:14;;;;;;;4.28;2.85;;;20.10;43.90;;;;;;5011090;28;20044;-77
2022/03/06 02:00:44;;;;;;;4.53;2.88;;;20.10;44.10;;;;;;5014059;28;20079;-77
2022/03/06 02:03:10;;;;;;;4.07;2.90;;;20.10;43.90;;;;;;5014045;28;20083;-77
2022/03/06 02:05:36;;;;;;;5.38;2.90;;;20.10;44.10;;;;;;5014808;28;20022;-77
2022/03/06 02:08:02;;;;;;;5.68;3.30;;;20.10;44.10;;;;;;5013465;28;20606;-78
2022/03/06 02:10:28;;;;;;;4.00;2.83;;;20.10;44.10;;;;;;5012812;28;20018;-78
2022/03/06 02:12:53;;;;;;;3.70;2.72;;;20.10;44.00;;;;;;5013374;28;20390;-78
2022/03/06 02:15:19;;;;;;;4.70;2.90;;;20.10;44.10;;;;;;5013607;28;20030;-78
2022/03/06 02:17:45;;;;;;;4.65;2.97;;;20.10;43.80;;;;;;5013202;28;20470;-78
2022/03/06 02:20:17;;;;;;;4.43;3.08;;;20.10;43.70;;;;;;5012577;28;20029;-78
2022/03/06 02:22:45;;;;;;;3.72;2.50;;;20.10;44.10;;;;;;5014388;28;20040;-77
2022/03/06 02:25:23;;;;;;;3.97;2.83;;;20.10;44.10;;;;;;5014390;28;20076;-78
2022/03/06 02:27:51;;;;;;;4.90;2.97;;;20.10;43.80;;;;;;5014650;28;20030;-78
2022/03/06 02:30:30;;;;;;;4.60;2.80;;;20.10;44.00;;;;;;5013580;28;20053;-78
2022/03/06 02:32:58;;;;;;;4.18;3.00;;;20.10;43.90;;;;;;5014280;28;20029;-78
2022/03/06 02:35:24;;;;;;;4.60;2.72;;;20.10;44.00;;;;;;5014456;28;20340;-78
2022/03/06 02:37:50;;;;;;;3.92;2.75;;;20.10;44.00;;;;;;4996859;28;20029;-78
2022/03/06 02:40:18;;;;;;;3.97;2.78;;;20.10;44.00;;;;;;5012105;28;20557;-78
2022/03/06 02:42:47;;;;;;;3.65;2.55;;;20.10;44.10;;;;;;5014109;28;20395;-78
2022/03/06 02:45:16;;;;;;;4.10;2.92;;;20.10;43.90;;;;;;5014237;28;20026;-78
2022/03/06 02:47:42;;;;;;;4.75;2.80;;;20.10;44.10;;;;;;5014253;28;20018;-78
2022/03/06 02:50:11;;;;;;;4.68;3.05;;;20.10;43.70;;;;;;5013169;28;20026;-78
2022/03/06 02:52:37;;;;;;;4.70;3.00;;;20.10;44.00;;;;;;5013653;28;20427;-78
2022/03/06 02:55:04;;;;;;;5.30;2.83;;;20.10;44.60;;;;;;5012583;28;20026;-78
2022/03/06 02:57:30;;;;;;;3.58;2.72;;;20.10;43.80;;;;;;5014033;28;20053;-78
2022/03/06 02:59:56;;;;;;;4.22;2.90;;;20.10;44.00;;;;;;4995437;28;20459;-79
2022/03/06 03:02:21;;;;;;;4.93;3.13;;;20.10;44.00;;;;;;4996400;28;20037;-78
2022/03/06 03:04:47;;;;;;;3.88;2.83;;;20.10;44.00;;;;;;5012812;28;20025;-78
2022/03/06 03:07:13;;;;;;;5.70;3.15;;;20.10;44.10;;;;;;5013700;28;20061;-78
2022/03/06 03:09:39;;;;;;;4.15;2.95;;;20.10;44.00;;;;;;5011804;28;20049;-78
2022/03/06 03:12:05;;;;;;;4.82;3.25;;;20.10;44.10;;;;;;5013622;28;20022;-78
2022/03/06 03:14:32;;;;;;;4.07;3.00;;;20.10;44.10;;;;;;5012468;28;20483;-77
2022/03/06 03:16:59;;;;;;;5.97;3.17;;;20.10;44.10;;;;;;5013500;28;20478;-78
2022/03/06 03:19:25;;;;;;;5.13;3.20;;;20.10;43.80;;;;;;5012013;28;20490;-78
2022/03/06 03:21:50;;;;;;;4.25;3.05;;;20.10;43.90;;;;;;5013243;28;20037;-78
2022/03/06 03:24:16;;;;;;;6.18;3.10;;;20.00;44.10;;;;;;5012115;28;20045;-77
2022/03/06 03:26:42;;;;;;;4.47;3.13;;;20.10;43.90;;;;;;5013215;28;20030;-77
2022/03/06 03:29:07;;;;;;;3.83;2.70;;;20.10;44.10;;;;;;5013404;28;20036;-78
2022/03/06 03:31:33;;;;;;;4.88;2.95;;;20.00;44.00;;;;;;5012438;28;20030;-78
2022/03/06 03:33:59;;;;;;;4.10;2.90;;;20.10;44.40;;;;;;5013243;28;20084;-77
2022/03/06 03:36:25;;;;;;;4.07;2.83;;;20.10;44.10;;;;;;5011963;28;20034;-78
2022/03/06 03:38:51;;;;;;;4.05;3.05;;;20.00;43.90;;;;;;5013209;28;20036;-78
2022/03/06 03:41:17;;;;;;;4.22;2.78;;;20.10;43.90;;;;;;5012473;28;20553;-78
2022/03/06 03:43:43;;;;;;;4.43;3.00;;;20.10;44.00;;;;;;5012956;28;20398;-77
2022/03/06 03:46:08;;;;;;;4.05;2.75;;;20.10;43.90;;;;;;5011657;28;20551;-77
2022/03/06 03:48:34;;;;;;;5.65;3.13;;;20.00;43.90;;;;;;5011595;28;20057;-78
2022/03/06 03:51:01;;;;;;;4.40;2.95;;;20.00;44.00;;;;;;5012032;28;20053;-78
2022/03/06 03:53:26;;;;;;;4.40;2.67;;;20.00;44.00;;;;;;4995445;28;20034;-78
2022/03/06 03:55:53;;;;;;;4.72;2.85;;;20.00;44.00;;;;;;5012741;28;20030;-77
2022/03/06 03:58:19;;;;;;;4.85;2.95;;;20.00;43.90;;;;;;5013068;28;20041;-77
2022/03/06 04:00:45;;;;;;;4.07;2.80;;;20.00;44.00;;;;;;4994328;28;20037;-77
2022/03/06 04:03:13;;;;;;;4.03;2.72;;;20.10;43.70;;;;;;5011630;28;20391;-78
2022/03/06 04:05:38;;;;;;;4.60;3.20;;;20.10;43.70;;;;;;5012709;28;20018;-78
2022/03/06 04:08:04;;;;;;;5.88;3.30;;;20.10;44.00;;;;;;5013107;28;20022;-78
2022/03/06 04:10:30;;;;;;;4.38;2.92;;;20.10;43.70;;;;;;5011778;28;20056;-77
2022/03/06 04:12:56;;;;;;;5.20;2.83;;;20.10;43.80;;;;;;5010892;28;20034;-78
2022/03/06 04:15:21;;;;;;;4.53;2.83;;;20.10;43.70;;;;;;5012639;28;20037;-77
2022/03/06 04:17:47;;;;;;;5.35;3.08;;;20.10;44.00;;;;;;5011082;28;20038;-77
2022/03/06 04:20:13;;;;;;;5.47;3.15;;;20.10;43.70;;;;;;5011612;28;20486;-78
2022/03/06 04:22:39;;;;;;;4.22;2.70;;;20.10;43.90;;;;;;5012123;28;20180;-78
2022/03/06 04:25:05;;;;;;;4.95;2.90;;;20.10;43.70;;;;;;5011301;28;20493;-78
2022/03/06 04:27:30;;;;;;;5.88;2.83;;;20.10;43.80;;;;;;5012117;28;20052;-78
2022/03/06 04:29:56;;;;;;;4.10;2.80;;;20.00;44.00;;;;;;5011438;28;20550;-77
2022/03/06 04:32:23;;;;;;;3.53;2.65;;;20.10;43.90;;;;;;5012172;28;20026;-78
2022/03/06 04:34:49;;;;;;;5.10;3.28;;;20.10;43.80;;;;;;5012111;28;20034;-78
2022/03/06 04:37:15;;;;;;;4.07;3.00;;;20.10;43.80;;;;;;5011934;28;20037;-78
2022/03/06 04:39:41;;;;;;;4.60;3.10;;;20.10;43.60;;;;;;5010270;28;20041;-77
2022/03/06 04:42:07;;;;;;;4.82;2.95;;;20.10;43.60;;;;;;4994646;28;20128;-78
2022/03/06 04:44:32;;;;;;;4.85;2.97;;;20.10;43.80;;;;;;5010590;28;20092;-78
2022/03/06 04:46:58;;;;;;;4.53;2.95;;;20.00;43.80;;;;;;5010866;28;20030;-77
2022/03/06 04:49:24;;;;;;;4.45;2.97;;;20.00;43.80;;;;;;5010094;28;20026;-78
2022/03/06 04:51:49;;;;;;;3.85;2.80;;;20.10;43.90;;;;;;5011664;28;20026;-78
2022/03/06 04:54:15;;;;;;;4.88;2.90;;;20.10;43.70;;;;;;5011824;28;20026;-78
2022/03/06 04:56:41;;;;;;;3.85;2.80;;;20.00;43.80;;;;;;5011585;28;20462;-79
2022/03/06 04:59:07;;;;;;;4.45;2.75;;;20.00;43.70;;;;;;5011762;28;20061;-80
2022/03/06 05:01:32;;;;;;;5.72;3.00;;;20.00;43.80;;;;;;5009805;28;20025;-79
2022/03/06 05:04:00;;;;;;;4.15;3.03;;;20.00;43.80;;;;;;5011560;28;20476;-81
2022/03/06 05:06:26;;;;;;;4.88;2.85;;;20.00;43.80;;;;;;5010519;28;20034;-81
2022/03/06 05:08:52;;;;;;;4.07;2.72;;;20.00;43.90;;;;;;5011572;28;20395;-80
2022/03/06 05:11:17;;;;;;;4.00;2.60;;;20.00;43.90;;;;;;5009635;28;20108;-80
2022/03/06 05:13:43;;;;;;;4.45;2.88;;;20.00;43.90;;;;;;5010458;28;20034;-79
2022/03/06 05:16:09;;;;;;;3.88;2.60;;;20.00;43.90;;;;;;5010523;28;20029;-80
2022/03/06 05:18:35;;;;;;;4.13;2.70;;;20.00;43.80;;;;;;5011741;28;20083;-80
2022/03/06 05:21:02;;;;;;;3.95;2.60;;;20.00;43.90;;;;;;5011774;28;20117;-80
2022/03/06 05:23:28;;;;;;;4.38;2.85;;;20.00;43.70;;;;;;5010570;28;20176;-79
2022/03/06 05:25:54;;;;;;;3.83;2.53;;;20.10;43.70;;;;;;5010365;28;20057;-80
2022/03/06 05:28:21;;;;;;;4.10;2.78;;;20.10;43.70;;;;;;5011623;28;20376;-80
2022/03/06 05:30:47;;;;;;;3.67;2.58;;;20.00;43.80;;;;;;5009571;28;20069;-79
2022/03/06 05:33:13;;;;;;;4.28;2.88;;;20.10;43.90;;;;;;5012056;28;20391;-80
2022/03/06 05:35:38;;;;;;;5.43;3.10;;;20.00;43.90;;;;;;5014547;28;20030;-80
2022/03/06 05:38:04;;;;;;;3.83;2.70;;;20.00;43.60;;;;;;5015554;28;20444;-80
2022/03/06 05:40:30;;;;;;;3.78;2.53;;;20.00;43.90;;;;;;5015129;28;20516;-80
2022/03/06 05:42:56;;;;;;;5.22;3.03;;;20.00;43.90;;;;;;5015685;28;20088;-79
2022/03/06 05:45:22;;;;;;;4.38;2.55;;;20.00;43.80;;;;;;5015474;28;20386;-80
2022/03/06 05:47:48;;;;;;;4.57;2.85;;;20.00;43.80;;;;;;5015343;28;20022;-79
2022/03/06 05:50:13;;;;;;;3.60;2.70;;;20.00;43.80;;;;;;5014565;28;20029;-79
2022/03/06 05:52:39;;;;;;;4.35;2.67;;;20.00;43.90;;;;;;5014557;28;20053;-78
2022/03/06 05:55:06;;;;;;;3.97;2.60;;;20.00;43.90;;;;;;5014235;28;20368;-76
2022/03/06 05:57:32;;;;;;;4.88;2.70;;;20.00;43.70;;;;;;5015218;28;20037;-76
2022/03/06 05:59:57;;;;;;;3.83;2.67;;;20.00;43.70;;;;;;5013414;28;20022;-75
2022/03/06 06:02:23;;;;;;;4.82;2.95;;;20.00;43.60;;;;;;5017385;28;20026;-76
2022/03/06 06:04:50;;;;;;;3.75;2.70;;;20.00;43.70;;;;;;5014355;28;20112;-76
2022/03/06 06:07:16;;;;;;;4.70;2.92;;;20.00;43.80;;;;;;5016176;28;20105;-76
2022/03/06 06:09:42;;;;;;;4.68;2.97;;;20.00;43.70;;;;;;5015075;28;20156;-77
2022/03/06 06:12:09;;;;;;;3.45;2.63;;;20.00;43.80;;;;;;4997976;28;20038;-77
2022/03/06 06:14:35;;;;;;;3.95;2.72;;;20.00;43.90;;;;;;5014815;28;20025;-77
2022/03/06 06:17:00;;;;;;;5.13;2.72;;;20.00;43.80;;;;;;5013331;28;20449;-77
2022/03/06 06:19:26;;;;;;;4.72;3.10;;;20.00;43.80;;;;;;5012789;28;20558;-77
2022/03/06 06:21:52;;;;;;;4.80;2.92;;;20.00;43.90;;;;;;5013561;28;20034;-76
2022/03/06 06:24:18;;;;;;;4.40;2.97;;;20.00;43.80;;;;;;5013385;28;20026;-77
2022/03/06 06:26:49;;;;;;;4.13;2.80;;;20.00;43.80;;;;;;5013215;28;20022;-77
2022/03/06 06:29:15;;;;;;;3.67;2.67;;;20.00;43.80;;;;;;5014309;28;20022;-78
2022/03/06 06:31:41;;;;;;;4.10;2.83;;;20.00;43.70;;;;;;5013610;28;20101;-78
2022/03/06 06:34:07;;;;;;;4.95;2.88;;;20.00;43.70;;;;;;5013088;28;20125;-76
2022/03/06 06:36:33;;;;;;;4.97;3.05;;;20.00;43.70;;;;;;5012954;28;20105;-77
2022/03/06 06:38:59;;;;;;;4.03;2.80;;;20.00;43.70;;;;;;5013022;28;20486;-76
2022/03/06 06:41:24;;;;;;;3.58;2.65;;;20.00;43.80;;;;;;5013586;28;20037;-77
2022/03/06 06:43:50;;;;;;;3.75;2.50;;;20.10;43.70;;;;;;5013642;28;20038;-76
2022/03/06 06:46:16;;;;;;;3.78;2.75;;;20.00;43.70;;;;;;5011826;28;20030;-76
2022/03/06 06:48:42;;;;;;;4.30;2.78;;;20.00;43.80;;;;;;5013870;28;20076;-76
2022/03/06 06:51:09;;;;;;;4.10;2.50;;;20.00;43.60;;;;;;5011980;28;20033;-76
2022/03/06 06:53:35;;;;;;;4.03;2.78;;;20.00;43.70;;;;;;5013923;28;20065;-76
2022/03/06 06:56:01;;;;;;;4.07;2.80;;;20.00;43.50;;;;;;5014053;28;20108;-76
2022/03/06 06:58:27;;;;;;;4.15;2.97;;;20.10;43.70;;;;;;5013774;28;20073;-77
2022/03/06 07:00:52;;;;;;;4.50;2.90;;;20.00;43.70;;;;;;5011840;28;20034;-76
2022/03/06 07:03:18;;;;;;;4.10;2.80;;;20.00;43.70;;;;;;5012617;28;20038;-76
2022/03/06 07:05:45;;;;;;;4.63;2.90;;;20.00;43.80;;;;;;5013626;28;20018;-76
2022/03/06 07:08:11;;;;;;;4.93;2.97;;;20.00;43.80;;;;;;5012413;28;20029;-76
2022/03/06 07:10:37;;;;;;;4.20;2.75;;;20.00;43.80;;;;;;5011354;28;20026;-77
2022/03/06 07:13:03;;;;;;;4.55;2.88;;;20.00;43.90;;;;;;5013862;28;20123;-77
2022/03/06 07:15:32;;;;;;;4.15;2.97;;;20.00;43.90;;;;;;5013468;28;20068;-78
2022/03/06 07:18:00;;;;;;;4.47;2.90;;;19.90;43.70;;;;;;5012173;28;20030;-78
2022/03/06 07:20:28;;;;;;;4.22;2.83;;;20.00;43.90;;;;;;5011629;28;20483;-78
2022/03/06 07:22:54;;;;;;;3.92;2.78;;;19.90;43.70;;;;;;5013299;28;20037;-78
2022/03/06 07:25:20;;;;;;;4.63;2.92;;;20.00;43.80;;;;;;5012510;28;20368;-77
2022/03/06 07:27:45;;;;;;;4.55;2.95;;;20.00;43.80;;;;;;5013296;28;20471;-77
2022/03/06 07:30:12;;;;;;;4.30;2.72;;;20.00;43.80;;;;;;5012694;28;20088;-77
2022/03/06 07:32:46;;;;;;;4.20;2.92;;;19.90;43.80;;;;;;5013262;28;20026;-77
2022/03/06 07:35:12;;;;;;;5.13;3.25;;;20.00;43.70;;;;;;5013264;28;20486;-77
2022/03/06 07:37:39;;;;;;;4.50;3.00;;;20.00;44.30;;;;;;5011841;28;20380;-77
2022/03/06 07:40:06;;;;;;;4.10;2.83;;;20.00;43.50;;;;;;5011015;28;20030;-77
2022/03/06 07:42:31;;;;;;;4.85;2.78;;;20.00;44.10;;;;;;5013118;28;20096;-77
2022/03/06 07:44:57;;;;;;;4.03;2.90;;;20.00;43.60;;;;;;5013208;28;20487;-77
2022/03/06 07:47:23;;;;;;;3.25;2.30;;;20.00;43.70;;;;;;5012002;28;20034;-77
2022/03/06 07:49:49;;;;;;;3.90;2.83;;;20.00;43.30;;;;;;5012112;28;20030;-77
2022/03/06 07:52:15;;;;;;;3.65;2.58;;;20.00;43.70;;;;;;5013025;28;20105;-77
2022/03/06 07:54:40;;;;;;;4.93;2.80;;;20.00;43.40;;;;;;4995262;28;20042;-77
2022/03/06 07:57:06;;;;;;;3.65;2.83;;;20.00;43.60;;;;;;4994680;28;20038;-77
2022/03/06 07:59:32;;;;;;;4.68;2.80;;;20.00;43.70;;;;;;5011880;28;20029;-78
2022/03/06 08:01:57;;;;;;;3.85;2.75;;;20.00;43.70;;;;;;5011676;28;20061;-77
2022/03/06 08:04:23;;;;;;;3.97;2.83;;;20.00;43.50;;;;;;5012646;28;20052;-76
2022/03/06 08:06:49;;;;;;;4.78;2.88;;;20.00;43.50;;;;;;5012577;28;20107;-77
2022/03/06 08:09:15;;;;;;;4.13;2.85;;;20.00;43.50;;;;;;5012559;28;20176;-77
2022/03/06 08:11:41;;;;;;;4.68;2.85;;;20.00;43.60;;;;;;5010725;28;20033;-77
2022/03/06 08:14:07;;;;;;;4.00;2.75;;;20.00;43.30;;;;;;5011571;28;20056;-77
2022/03/06 08:16:33;;;;;;;4.28;3.05;;;20.00;44.20;;;;;;5011444;28;20065;-77
2022/03/06 08:18:59;;;;;;;4.85;3.25;;;20.00;43.50;;;;;;5012377;28;20060;-77
2022/03/06 08:21:24;;;;;;;3.72;2.70;;;20.00;43.50;;;;;;5009993;28;20030;-77
2022/03/06 08:23:51;;;;;;;4.43;3.15;;;20.00;44.00;;;;;;5012150;28;20034;-77
2022/03/06 08:26:17;;;;;;;3.50;2.60;;;20.00;43.70;;;;;;5011121;28;20026;-77
2022/03/06 08:28:43;;;;;;;4.82;2.90;;;20.00;43.60;;;;;;5012294;28;20037;-77
2022/03/06 08:31:09;;;;;;;4.13;2.90;;;20.00;43.50;;;;;;5011530;28;20056;-77
2022/03/06 08:33:35;;;;;;;4.68;2.92;;;20.00;43.50;;;;;;5012183;28;20221;-77
2022/03/06 08:36:00;;;;;;;3.47;2.70;;;20.00;43.50;;;;;;5012157;28;20152;-75
2022/03/06 08:38:26;;;;;;;4.53;2.97;;;20.00;43.50;;;;;;5012133;28;20037;-77
2022/03/06 08:40:52;;;;;;;3.97;2.80;;;20.00;43.50;;;;;;4993830;28;20033;-77
2022/03/06 08:43:18;;;;;;;4.43;2.90;;;20.00;43.60;;;;;;4994462;28;20065;-77
2022/03/06 08:45:44;;;;;;;4.25;2.90;;;20.00;43.60;;;;;;5012109;28;20109;-76
2022/03/06 08:48:10;;;;;;;3.97;2.65;;;20.00;43.60;;;;;;4994599;28;20033;-77
2022/03/06 08:50:35;;;;;;;5.30;3.13;;;20.00;43.60;;;;;;5011379;28;20033;-76
2022/03/06 08:53:01;;;;;;;5.68;3.13;;;20.00;43.40;;;;;;5011959;28;20084;-77
2022/03/06 08:55:27;;;;;;;4.88;3.00;;;20.00;43.60;;;;;;5011785;28;20030;-77
2022/03/06 08:57:52;;;;;;;4.88;2.90;;;20.00;43.60;;;;;;5010150;23;20053;-75
2022/03/06 09:00:18;;;;;;;4.57;3.05;;;20.00;43.60;;;;;;4989807;28;20025;-75
2022/03/06 09:02:44;;;;;;;4.82;2.78;;;20.00;43.40;;;;;;4990773;28;20030;-75
2022/03/06 09:05:10;;;;;;;4.60;3.10;;;20.00;43.50;;;;;;4992124;28;20467;-75
2022/03/06 09:07:35;;;;;;;4.85;3.10;;;20.00;43.30;;;;;;4974427;28;20030;-75
2022/03/06 09:10:02;;;;;;;5.95;2.78;;;20.00;43.30;;;;;;4989985;28;20109;-75
2022/03/06 09:12:28;;;;;;;5.03;2.78;;;20.00;43.30;;;;;;4990710;28;20026;-76
2022/03/06 09:14:54;;;;;;;4.15;2.80;;;20.00;43.40;;;;;;4991928;28;20042;-75
2022/03/06 09:17:20;;;;;;;4.43;2.80;;;20.00;43.50;;;;;;4991902;28;20034;-75
2022/03/06 09:19:47;;;;;;;4.03;2.92;;;20.00;43.50;;;;;;4989962;28;20030;-75
2022/03/06 09:22:12;;;;;;;4.15;2.85;;;20.00;43.40;;;;;;4974489;28;20475;-75
2022/03/06 09:24:38;;;;;;;4.22;2.90;;;20.00;43.40;;;;;;4990495;28;20030;-75
2022/03/06 09:27:04;;;;;;;3.88;2.83;;;20.00;43.50;;;;;;4974648;28;20487;-75
2022/03/06 09:29:30;;;;;;;5.50;2.97;;;20.00;44.10;;;;;;4990998;28;20491;-75
2022/03/06 09:31:56;;;;;;;4.38;2.80;;;20.00;43.50;;;;;;4990972;28;20030;-75
2022/03/06 09:34:21;;;;;;;5.00;2.88;;;20.00;43.40;;;;;;4975048;28;20090;-75
2022/03/06 09:36:48;;;;;;;5.25;2.90;;;20.00;43.30;;;;;;4990506;28;20038;-75
2022/03/06 09:39:14;;;;;;;4.93;2.78;;;20.00;43.60;;;;;;4991511;28;20030;-75
2022/03/06 09:41:40;;;;;;;3.58;2.70;;;20.00;43.50;;;;;;4991295;28;20105;-76
2022/03/06 09:44:08;;;;;;;5.00;3.08;;;20.00;43.20;;;;;;4991506;28;20030;-75
2022/03/06 09:46:35;;;;;;;3.97;2.75;;;20.00;43.40;;;;;;4990480;28;20443;-75
2022/03/06 09:49:05;;;;;;;4.13;2.78;;;20.00;43.40;;;;;;4990514;28;20050;-76
2022/03/06 09:51:38;;;;;;;;;;;20.00;43.50;;;;;;4989961;28;20030;-76
2022/03/06 09:54:05;;;;;;;3.97;2.80;;;20.00;43.40;;;;;;4991813;28;20534;-75
2022/03/06 09:56:31;;;;;;;3.38;2.55;;;20.00;43.50;;;;;;4974214;28;20026;-76
2022/03/06 09:58:56;;;;;;;4.53;2.70;;;20.00;43.40;;;;;;4991881;28;20026;-76
2022/03/06 10:01:22;;;;;;;4.10;2.90;;;20.00;43.50;;;;;;4990730;28;20030;-74
2022/03/06 10:03:48;;;;;;;3.88;2.63;;;20.00;43.30;;;;;;4974212;28;20816;-75
2022/03/06 10:06:14;;;;;;;4.28;2.63;;;20.00;43.60;;;;;;4991287;28;20039;-75
2022/03/06 10:08:39;;;;;;;4.35;2.60;;;20.00;43.50;;;;;;4974537;28;20113;-75
2022/03/06 10:11:10;;;;;;;4.57;3.10;;;20.00;43.50;;;;;;4973278;28;20046;-75
2022/03/06 10:13:38;;;;;;;5.03;3.00;;;20.00;43.50;;;;;;4990553;28;20049;-75
2022/03/06 10:16:09;;;;;;;4.90;3.00;;;20.00;43.40;;;;;;4990087;28;20065;-74
2022/03/06 10:18:37;;;;;;;4.18;2.65;;;20.00;43.50;;;;;;4990671;28;20434;-74
2022/03/06 10:21:28;;;;;;;4.38;2.95;;;20.00;43.60;;;;;;4994279;28;20030;-75
2022/03/06 10:23:59;;;;;;;3.85;2.80;;;20.00;43.30;;;;;;4995120;28;20034;-75
2022/03/06 10:26:27;;;;;;;4.68;3.00;;;20.00;43.50;;;;;;4993885;28;20479;-75
2022/03/06 10:28:58;;;;;;;4.93;3.03;;;20.00;43.40;;;;;;4995303;28;20026;-75
2022/03/06 10:31:27;;;;;;;4.32;2.70;;;20.00;43.60;;;;;;4992990;28;20113;-75
2022/03/06 10:33:59;;;;;;;4.47;2.72;;;20.00;43.60;;;;;;4993657;28;20037;-75
2022/03/06 10:36:30;;;;;;;3.58;2.60;;;20.00;43.30;;;;;;4994712;28;20034;-75
2022/03/06 10:38:56;;;;;;;4.15;2.90;;;20.00;43.30;;;;;;4995051;28;20053;-75
2022/03/06 10:41:22;;;;;;;4.32;2.97;;;20.00;43.40;;;;;;4993901;28;20026;-75
2022/03/06 10:43:51;;;;;;;3.20;2.42;;;20.00;43.60;;;;;;4994699;28;20108;-76
2022/03/06 10:46:18;;;;;;;4.43;3.08;;;20.00;43.50;;;;;;4994438;28;20022;-75
2022/03/06 10:48:56;;;;;;;4.50;2.78;;;20.00;43.50;;;;;;4994583;28;20038;-75
2022/03/06 10:51:22;;;;;;;4.03;2.90;;;20.00;43.50;;;;;;4993745;28;20438;-76
2022/03/06 10:53:52;;;;;;;4.18;2.95;;;20.00;43.50;;;;;;4977421;28;20038;-75
2022/03/06 10:56:18;;;;;;;4.55;2.90;;;20.00;43.60;;;;;;4994406;28;20048;-75
2022/03/06 10:58:46;;;;;;;4.35;2.88;;;20.00;43.50;;;;;;4993283;28;20661;-75
2022/03/06 11:01:12;;;;;;;3.88;2.70;;;20.00;43.50;;;;;;4992326;28;20042;-75
2022/03/06 11:03:38;;;;;;;4.93;2.90;;;20.00;43.40;;;;;;4994634;28;20428;-76
2022/03/06 11:06:05;;;;;;;4.68;2.92;;;20.00;43.50;;;;;;4993057;28;20117;-76
2022/03/06 11:08:32;;;;;;;4.55;3.03;;;20.00;43.40;;;;;;4977467;28;20038;-76
2022/03/06 11:10:58;;;;;;;5.13;3.22;;;20.00;43.50;;;;;;4993888;28;20030;-75
2022/03/06 11:13:27;;;;;;;4.22;2.80;;;20.00;43.40;;;;;;4993218;28;20407;-75
2022/03/06 11:15:53;;;;;;;3.80;2.63;;;20.00;43.50;;;;;;4994159;28;20454;-74
2022/03/06 11:18:19;;;;;;;4.72;2.78;;;20.00;43.50;;;;;;4994120;28;20030;-75
2022/03/06 11:20:46;;;;;;;4.38;2.75;;;20.00;43.60;;;;;;4993164;28;20118;-75
2022/03/06 11:23:38;;;;;;;3.60;2.65;;;20.00;43.50;;;;;;4993935;28;20542;-75
2022/03/06 11:26:10;;;;;;;5.45;3.13;;;20.00;43.50;;;;;;4993856;28;20034;-75
2022/03/06 11:28:57;;;;;;;5.18;2.90;;;20.00;43.50;;;;;;4993116;28;20027;-75
2022/03/06 11:31:23;;;;;;;4.15;2.80;;;20.00;43.50;;;;;;4974769;28;20395;-74
2022/03/06 11:33:57;;;;;;;3.50;2.53;;;20.00;43.40;;;;;;4993964;28;20041;-75
2022/03/06 11:36:27;;;;;;;4.00;2.70;;;20.00;43.40;;;;;;4992272;28;20499;-75
2022/03/06 11:38:54;;;;;;;4.75;2.92;;;20.00;43.20;;;;;;4992334;28;20034;-75
2022/03/06 11:41:20;;;;;;;3.70;2.75;;;20.00;43.50;;;;;;4991508;28;20026;-74
2022/03/06 11:43:48;;;;;;;3.53;2.65;;;20.00;43.50;;;;;;4993719;28;20461;-74
2022/03/06 11:46:18;;;;;;;4.65;2.90;;;20.00;43.20;;;;;;4993376;28;20038;-74
2022/03/06 11:48:44;;;;;;;4.53;2.95;;;20.00;43.30;;;;;;4993630;28;20077;-74
2022/03/06 11:51:21;;;;;;;3.90;2.83;;;20.00;43.60;;;;;;4992568;28;20022;-75
2022/03/06 11:54:05;;;;;;;4.55;2.75;;;20.00;43.30;;;;;;4992333;28;20171;-75
2022/03/06 11:56:39;;;;;;;4.47;2.72;;;20.00;43.50;;;;;;4993460;28;20038;-75
2022/03/06 11:59:17;;;;;;;3.72;2.67;;;20.00;43.50;;;;;;4993263;28;20030;-75
2022/03/06 12:01:44;;;;;;;4.15;2.90;;;20.00;43.50;;;;;;4992839;28;20038;-75
2022/03/06 12:04:12;;;;;;;5.43;2.90;;;20.00;43.50;;;;;;4993129;28;20145;-75
2022/03/06 12:06:41;;;;;;;4.22;2.90;;;20.00;43.30;;;;;;4993129;28;20494;-75
2022/03/06 12:09:21;;;;;;;4.43;2.73;;;20.00;43.40;;;;;;4993176;28;20041;-75
2022/03/06 12:11:50;;;;;;;6.97;2.85;;;20.00;43.40;;;;;;4991982;28;20340;-75
2022/03/06 12:14:22;;;;;;;3.92;2.90;;;20.00;43.40;;;;;;4992993;28;20394;-74
2022/03/06 12:17:03;;;;;;;5.10;2.97;;;20.00;43.50;;;;;;4991697;28;20034;-74
2022/03/06 12:19:30;;;;;;;4.50;2.97;;;20.00;43.50;;;;;;4991415;28;20045;-74
2022/03/06 12:22:13;;;;;;;4.18;3.05;;;20.00;43.50;;;;;;4992822;28;20030;-74
2022/03/06 12:24:44;;;;;;;4.50;2.58;;;20.00;43.30;;;;;;4992668;28;20026;-74
2022/03/06 12:27:19;;;;;;;4.80;3.10;;;20.00;43.40;;;;;;4992614;28;20026;-74
2022/03/06 12:29:53;;;;;;;4.28;2.83;;;20.00;43.40;;;;;;4992459;28;20027;-74
2022/03/06 12:32:25;;;;;;;3.97;3.00;;;20.00;43.40;;;;;;4991573;28;20494;-74
2022/03/06 12:34:58;;;;;;;5.18;3.00;;;20.00;43.40;;;;;;4975632;28;20034;-74
2022/03/06 12:37:27;;;;;;;5.05;3.30;;;20.00;43.40;;;;;;4992611;28;20049;-74
2022/03/06 12:39:54;;;;;;;6.45;2.67;;;20.00;43.50;;;;;;4991229;28;20030;-74
2022/03/06 12:42:30;;;;;;;5.82;3.20;;;20.00;43.40;;;;;;4975065;28;20037;-74
2022/03/06 12:45:01;;;;;;;3.83;2.60;;;20.00;43.40;;;;;;4992485;28;20027;-74
2022/03/06 12:47:28;;;;;;;4.70;3.13;;;20.00;43.40;;;;;;4992203;28;20019;-75